BAW44L EGLL-LEBL
Flight info
| Callsign | BAW44L |
|---|---|
| Flight time | N/A |
| Altitude | 39000 |
| Route | MODMI M185 MID L151 SITET UN859 SOPIL DCT BALAN DCT EVPOK DCT NARAK DCT GAI DCT LOMRA DCT ROCAN DCT PUMAL |
| Aircraft | A388/J-SADE2E3FGHIJ3J4J5M1RWXY/LB1D1 |
Departure
| Time | 2026-05-07 19:34 |
|---|---|
| Airport | London Heathrow Airport (EGLL) |
Arrival
| Time | N/A |
|---|---|
| Airport | Josep Tarradellas Barcelona-El Prat Airport (LEBL) |
| Time | Latitude | Longitude | Altitude | Speed | Heading |
|---|---|---|---|---|---|
| 2026-05-07 18:18 | 51.47317 | -0.47486 | 93 ft | 0 kts | 269° |
| 2026-05-07 19:15 | 51.47317 | -0.47468 | 94 ft | 4 kts | 269° |
| 2026-05-07 19:16 | 51.47318 | -0.47425 | 91 ft | 4 kts | 269° |
| 2026-05-07 19:16 | 51.47318 | -0.47392 | 91 ft | 4 kts | 260° |
| 2026-05-07 19:16 | 51.47325 | -0.47365 | 93 ft | 4 kts | 222° |
| 2026-05-07 19:16 | 51.47341 | -0.47354 | 92 ft | 4 kts | 181° |
| 2026-05-07 19:17 | 51.47366 | -0.47354 | 92 ft | 4 kts | 179° |
| 2026-05-07 19:17 | 51.47381 | -0.47354 | 90 ft | 1 kts | 179° |
| 2026-05-07 19:22 | 51.47377 | -0.47354 | 91 ft | 2 kts | 179° |
| 2026-05-07 19:22 | 51.47352 | -0.47354 | 93 ft | 5 kts | 179° |
| 2026-05-07 19:22 | 51.47301 | -0.47354 | 92 ft | 9 kts | 179° |
| 2026-05-07 19:22 | 51.47229 | -0.47353 | 94 ft | 12 kts | 179° |
| 2026-05-07 19:23 | 51.47141 | -0.47352 | 91 ft | 14 kts | 179° |
| 2026-05-07 19:23 | 51.47042 | -0.47351 | 91 ft | 15 kts | 179° |
| 2026-05-07 19:23 | 51.46932 | -0.47351 | 91 ft | 16 kts | 179° |
| 2026-05-07 19:23 | 51.46817 | -0.47350 | 91 ft | 17 kts | 179° |
| 2026-05-07 19:24 | 51.46721 | -0.47349 | 92 ft | 6 kts | 180° |
| 2026-05-07 19:24 | 51.46688 | -0.47349 | 92 ft | 4 kts | 180° |
| 2026-05-07 19:24 | 51.46671 | -0.47354 | 93 ft | 2 kts | 223° |
| 2026-05-07 19:24 | 51.46661 | -0.47385 | 94 ft | 6 kts | 255° |
| 2026-05-07 19:25 | 51.46657 | -0.47471 | 94 ft | 10 kts | 267° |
| 2026-05-07 19:25 | 51.46653 | -0.47611 | 92 ft | 15 kts | 269° |
| 2026-05-07 19:25 | 51.46653 | -0.47799 | 91 ft | 19 kts | 270° |
| 2026-05-07 19:25 | 51.46653 | -0.47991 | 93 ft | 11 kts | 270° |
| 2026-05-07 19:26 | 51.46653 | -0.48051 | 93 ft | 0 kts | 270° |
| 2026-05-07 19:29 | 51.46653 | -0.48061 | 94 ft | 3 kts | 270° |
| 2026-05-07 19:29 | 51.46653 | -0.48131 | 91 ft | 9 kts | 270° |
| 2026-05-07 19:29 | 51.46653 | -0.48261 | 91 ft | 14 kts | 270° |
| 2026-05-07 19:29 | 51.46653 | -0.48443 | 94 ft | 18 kts | 270° |
| 2026-05-07 19:30 | 51.46653 | -0.48613 | 91 ft | 11 kts | 270° |
| 2026-05-07 19:30 | 51.46652 | -0.48705 | 91 ft | 6 kts | 248° |
| 2026-05-07 19:30 | 51.46625 | -0.48748 | 95 ft | 0 kts | 207° |
| 2026-05-07 19:31 | 51.46608 | -0.48762 | 95 ft | 6 kts | 207° |
| 2026-05-07 19:31 | 51.46561 | -0.48785 | 95 ft | 8 kts | 181° |
| 2026-05-07 19:32 | 51.46513 | -0.48755 | 96 ft | 9 kts | 147° |
| 2026-05-07 19:32 | 51.46477 | -0.48680 | 94 ft | 9 kts | 105° |
| 2026-05-07 19:32 | 51.46476 | -0.48596 | 94 ft | 0 kts | 88° |
| 2026-05-07 19:33 | 51.46482 | -0.48301 | 96 ft | 68 kts | 89° |
| 2026-05-07 19:33 | 51.46475 | -0.47610 | 94 ft | 115 kts | 88° |
| 2026-05-07 19:33 | 51.46480 | -0.46046 | 119 ft | 159 kts | 92° |
| 2026-05-07 19:34 | 51.46513 | -0.44217 | 469 ft | 167 kts | 89° |
| 2026-05-07 19:34 | 51.46562 | -0.42352 | 1046 ft | 166 kts | 89° |
| 2026-05-07 19:34 | 51.46346 | -0.40559 | 1616 ft | 162 kts | 120° |
| 2026-05-07 19:34 | 51.45699 | -0.39047 | 2059 ft | 171 kts | 130° |
| 2026-05-07 19:35 | 51.44839 | -0.37619 | 2238 ft | 187 kts | 147° |
| 2026-05-07 19:35 | 51.43590 | -0.36640 | 2545 ft | 213 kts | 158° |
| 2026-05-07 19:35 | 51.42136 | -0.35775 | 3044 ft | 235 kts | 159° |
| 2026-05-07 19:35 | 51.40477 | -0.35160 | 3571 ft | 257 kts | 180° |
| 2026-05-07 19:36 | 51.38736 | -0.35887 | 4428 ft | 265 kts | 208° |
| 2026-05-07 19:36 | 51.37174 | -0.37467 | 5374 ft | 267 kts | 211° |
| 2026-05-07 19:36 | 51.35549 | -0.38958 | 5877 ft | 271 kts | 208° |
| 2026-05-07 19:36 | 51.33872 | -0.40342 | 6002 ft | 272 kts | 206° |
| 2026-05-07 19:37 | 51.32168 | -0.41679 | 6018 ft | 273 kts | 205° |
| 2026-05-07 19:37 | 51.30461 | -0.42999 | 6017 ft | 272 kts | 205° |
| 2026-05-07 19:37 | 51.28753 | -0.44325 | 6058 ft | 274 kts | 206° |
| 2026-05-07 19:37 | 51.27037 | -0.45663 | 6462 ft | 276 kts | 206° |
| 2026-05-07 19:38 | 51.25330 | -0.47018 | 7448 ft | 271 kts | 207° |
| 2026-05-07 19:38 | 51.23636 | -0.48374 | 8393 ft | 274 kts | 208° |
| 2026-05-07 19:38 | 51.21987 | -0.49685 | 9308 ft | 276 kts | 208° |
| 2026-05-07 19:38 | 51.20354 | -0.50956 | 10161 ft | 277 kts | 208° |
| 2026-05-07 19:39 | 51.18569 | -0.52338 | 10637 ft | 296 kts | 207° |
| 2026-05-07 19:39 | 51.16680 | -0.53798 | 10869 ft | 317 kts | 207° |
| 2026-05-07 19:39 | 51.14618 | -0.55391 | 11336 ft | 330 kts | 207° |
| 2026-05-07 19:39 | 51.12571 | -0.56968 | 12075 ft | 332 kts | 207° |
| 2026-05-07 19:40 | 51.10453 | -0.58599 | 12824 ft | 336 kts | 206° |
| 2026-05-07 19:40 | 51.08365 | -0.60207 | 13558 ft | 339 kts | 206° |
| 2026-05-07 19:40 | 51.06124 | -0.61399 | 14229 ft | 344 kts | 188° |
| 2026-05-07 19:40 | 51.03723 | -0.61268 | 14905 ft | 350 kts | 168° |
| 2026-05-07 19:41 | 51.01420 | -0.59923 | 15524 ft | 356 kts | 158° |
| 2026-05-07 19:41 | 50.99102 | -0.58350 | 16154 ft | 360 kts | 159° |
| 2026-05-07 19:41 | 50.96784 | -0.56805 | 16795 ft | 363 kts | 159° |
| 2026-05-07 19:41 | 50.94471 | -0.55277 | 17403 ft | 367 kts | 159° |
| 2026-05-07 19:42 | 50.92100 | -0.53716 | 18009 ft | 371 kts | 159° |
| 2026-05-07 19:42 | 50.89703 | -0.52140 | 18574 ft | 375 kts | 159° |
| 2026-05-07 19:42 | 50.87291 | -0.50554 | 19122 ft | 377 kts | 160° |
| 2026-05-07 19:42 | 50.84863 | -0.48959 | 19685 ft | 379 kts | 160° |
| 2026-05-07 19:43 | 50.82418 | -0.47355 | 20215 ft | 382 kts | 160° |
| 2026-05-07 19:43 | 50.79952 | -0.45739 | 20745 ft | 385 kts | 160° |
| 2026-05-07 19:43 | 50.77474 | -0.44117 | 21262 ft | 387 kts | 160° |
| 2026-05-07 19:43 | 50.74974 | -0.42483 | 21781 ft | 390 kts | 160° |
| 2026-05-07 19:44 | 50.72459 | -0.40840 | 22295 ft | 393 kts | 160° |
| 2026-05-07 19:44 | 50.69924 | -0.39187 | 22803 ft | 396 kts | 160° |
| 2026-05-07 19:44 | 50.67373 | -0.37524 | 23310 ft | 398 kts | 160° |
| 2026-05-07 19:44 | 50.64801 | -0.35851 | 23774 ft | 401 kts | 160° |
| 2026-05-07 19:45 | 50.62211 | -0.34167 | 24222 ft | 403 kts | 160° |
| 2026-05-07 19:45 | 50.59619 | -0.32484 | 24646 ft | 406 kts | 160° |
| 2026-05-07 19:45 | 50.56996 | -0.30784 | 25082 ft | 408 kts | 160° |
| 2026-05-07 19:45 | 50.54361 | -0.29077 | 25517 ft | 411 kts | 160° |
| 2026-05-07 19:46 | 50.51704 | -0.27358 | 25980 ft | 414 kts | 160° |
| 2026-05-07 19:46 | 50.49040 | -0.25637 | 26437 ft | 416 kts | 160° |
| 2026-05-07 19:46 | 50.46347 | -0.23899 | 26929 ft | 419 kts | 160° |
| 2026-05-07 19:46 | 50.43636 | -0.22152 | 27430 ft | 422 kts | 160° |
| 2026-05-07 19:47 | 50.40908 | -0.20396 | 27926 ft | 425 kts | 160° |
| 2026-05-07 19:47 | 50.38162 | -0.18631 | 28438 ft | 428 kts | 160° |
| 2026-05-07 19:47 | 50.35392 | -0.16853 | 28953 ft | 432 kts | 160° |
| 2026-05-07 19:47 | 50.32602 | -0.15063 | 29481 ft | 435 kts | 160° |
| 2026-05-07 19:48 | 50.29792 | -0.13263 | 29981 ft | 438 kts | 160° |
| 2026-05-07 19:48 | 50.26960 | -0.11452 | 30449 ft | 441 kts | 160° |
| 2026-05-07 19:48 | 50.24068 | -0.09604 | 30920 ft | 444 kts | 160° |
| 2026-05-07 19:48 | 50.21197 | -0.07773 | 31365 ft | 447 kts | 160° |
| 2026-05-07 19:49 | 50.18214 | -0.05812 | 31837 ft | 450 kts | 159° |
| 2026-05-07 19:49 | 50.15456 | -0.03883 | 32284 ft | 453 kts | 158° |
| 2026-05-07 19:49 | 50.12613 | -0.01869 | 32714 ft | 456 kts | 158° |
| 2026-05-07 19:49 | 50.09675 | 0.00014 | 33123 ft | 458 kts | 163° |
| 2026-05-07 19:50 | 50.06613 | 0.01385 | 33480 ft | 460 kts | 168° |
| 2026-05-07 19:50 | 50.03492 | 0.02587 | 33933 ft | 463 kts | 168° |
| 2026-05-07 19:50 | 50.00356 | 0.03810 | 34296 ft | 466 kts | 168° |
| 2026-05-07 19:50 | 49.97202 | 0.05046 | 34617 ft | 470 kts | 168° |
| 2026-05-07 19:51 | 49.94018 | 0.06297 | 34988 ft | 472 kts | 168° |
| 2026-05-07 19:51 | 49.90833 | 0.07549 | 35403 ft | 474 kts | 168° |
| 2026-05-07 19:51 | 49.87632 | 0.08805 | 35843 ft | 475 kts | 168° |
| 2026-05-07 19:51 | 49.84425 | 0.10061 | 36277 ft | 476 kts | 168° |
| 2026-05-07 19:52 | 49.81211 | 0.11318 | 36705 ft | 477 kts | 168° |
| 2026-05-07 19:52 | 49.77997 | 0.12573 | 37133 ft | 477 kts | 168° |
| 2026-05-07 19:52 | 49.74771 | 0.13830 | 37551 ft | 478 kts | 168° |
| 2026-05-07 19:52 | 49.71544 | 0.15087 | 37959 ft | 479 kts | 168° |
| 2026-05-07 19:53 | 49.68302 | 0.16347 | 38393 ft | 480 kts | 168° |
| 2026-05-07 19:53 | 49.65060 | 0.17627 | 38790 ft | 481 kts | 168° |
| 2026-05-07 19:53 | 49.61814 | 0.18940 | 39000 ft | 485 kts | 167° |
| 2026-05-07 19:53 | 49.58545 | 0.20267 | 39045 ft | 483 kts | 167° |
| 2026-05-07 19:54 | 49.52040 | 0.22895 | 39035 ft | 484 kts | 168° |
| 2026-05-07 19:54 | 49.45509 | 0.25515 | 39024 ft | 485 kts | 168° |
| 2026-05-07 19:55 | 49.38986 | 0.28122 | 39015 ft | 484 kts | 168° |
| 2026-05-07 19:55 | 49.32470 | 0.30719 | 39020 ft | 484 kts | 168° |
| 2026-05-07 19:56 | 49.25941 | 0.33395 | 39020 ft | 486 kts | 167° |
| 2026-05-07 19:56 | 49.19430 | 0.36171 | 39012 ft | 486 kts | 167° |
| 2026-05-07 19:57 | 49.12923 | 0.38919 | 39011 ft | 485 kts | 167° |
| 2026-05-07 19:57 | 49.06453 | 0.41632 | 39011 ft | 485 kts | 167° |
| 2026-05-07 19:58 | 48.99905 | 0.44368 | 39007 ft | 485 kts | 167° |
| 2026-05-07 19:58 | 48.93398 | 0.47081 | 39020 ft | 484 kts | 167° |
| 2026-05-07 19:59 | 48.86895 | 0.49783 | 39019 ft | 484 kts | 167° |
| 2026-05-07 19:59 | 48.80445 | 0.52457 | 39017 ft | 484 kts | 167° |
| 2026-05-07 20:00 | 48.73938 | 0.55082 | 39022 ft | 484 kts | 168° |
| 2026-05-07 20:00 | 48.67422 | 0.57610 | 39021 ft | 484 kts | 168° |
| 2026-05-07 20:01 | 48.60906 | 0.60146 | 39024 ft | 483 kts | 168° |
| 2026-05-07 20:01 | 48.54398 | 0.62682 | 39021 ft | 483 kts | 168° |
| 2026-05-07 20:02 | 48.47897 | 0.65255 | 39020 ft | 483 kts | 167° |
| 2026-05-07 20:02 | 48.41407 | 0.67917 | 39016 ft | 483 kts | 167° |
| 2026-05-07 20:03 | 48.34919 | 0.70560 | 39016 ft | 483 kts | 167° |
| 2026-05-07 20:03 | 48.28428 | 0.73187 | 39013 ft | 483 kts | 167° |
| 2026-05-07 20:04 | 48.21935 | 0.75793 | 38998 ft | 483 kts | 168° |
| 2026-05-07 20:04 | 48.15435 | 0.78343 | 39015 ft | 483 kts | 168° |
| 2026-05-07 20:05 | 48.08934 | 0.80889 | 39010 ft | 483 kts | 168° |
| 2026-05-07 20:05 | 48.02430 | 0.83435 | 39009 ft | 483 kts | 168° |
| 2026-05-07 20:06 | 47.95929 | 0.85974 | 39007 ft | 483 kts | 168° |
| 2026-05-07 20:06 | 47.89423 | 0.88509 | 39007 ft | 483 kts | 168° |
| 2026-05-07 20:07 | 47.82918 | 0.91037 | 39006 ft | 483 kts | 168° |
| 2026-05-07 20:07 | 47.76411 | 0.93559 | 39003 ft | 483 kts | 168° |
| 2026-05-07 20:08 | 47.69912 | 0.96071 | 39005 ft | 483 kts | 168° |
| 2026-05-07 20:08 | 47.63399 | 0.98582 | 39005 ft | 483 kts | 168° |
| 2026-05-07 20:09 | 47.56934 | 1.01068 | 38998 ft | 483 kts | 168° |
| 2026-05-07 20:10 | 47.47168 | 1.04786 | 39000 ft | 482 kts | 170° |
| 2026-05-07 20:10 | 47.40564 | 1.06241 | 39001 ft | 479 kts | 179° |
| 2026-05-07 20:11 | 47.33930 | 1.06286 | 39003 ft | 476 kts | 184° |
| 2026-05-07 20:11 | 47.27305 | 1.06088 | 39006 ft | 476 kts | 184° |
| 2026-05-07 20:12 | 47.20678 | 1.05926 | 39005 ft | 476 kts | 184° |
| 2026-05-07 20:12 | 47.14055 | 1.05772 | 39004 ft | 476 kts | 184° |
| 2026-05-07 20:13 | 47.04249 | 1.05544 | 38994 ft | 476 kts | 184° |
| 2026-05-07 20:13 | 46.91003 | 1.05022 | 38998 ft | 476 kts | 184° |
| 2026-05-07 20:14 | 46.77770 | 1.04445 | 38994 ft | 476 kts | 184° |
| 2026-05-07 20:14 | 46.64541 | 1.03885 | 38993 ft | 476 kts | 184° |
| 2026-05-07 20:15 | 46.51384 | 1.03841 | 38984 ft | 478 kts | 176° |
| 2026-05-07 20:15 | 46.38214 | 1.07812 | 38983 ft | 481 kts | 170° |
| 2026-05-07 20:16 | 46.25182 | 1.12162 | 38988 ft | 480 kts | 170° |
| 2026-05-07 20:16 | 46.12041 | 1.16511 | 38984 ft | 500 kts | 170° |
| 2026-05-07 20:17 | 45.98569 | 1.20959 | 39003 ft | 497 kts | 170° |
| 2026-05-07 20:17 | 45.85075 | 1.25386 | 38996 ft | 498 kts | 170° |
| 2026-05-07 20:18 | 45.71549 | 1.29802 | 38985 ft | 498 kts | 170° |
| 2026-05-07 20:18 | 45.58054 | 1.34187 | 38980 ft | 498 kts | 170° |
| 2026-05-07 20:19 | 45.44563 | 1.38549 | 38978 ft | 497 kts | 170° |
| 2026-05-07 20:19 | 45.31067 | 1.42890 | 38971 ft | 497 kts | 170° |
| 2026-05-07 20:20 | 45.17571 | 1.47211 | 38959 ft | 497 kts | 170° |
| 2026-05-07 20:20 | 45.06357 | 1.50785 | 38966 ft | 498 kts | 170° |
| 2026-05-07 20:21 | 44.92835 | 1.55076 | 38975 ft | 498 kts | 170° |